sensor_id;sensor_type;location;lat;lon;timestamp;P1;durP1;ratioP1;P2;durP2;ratioP2
52035;SDS011;38046;49.448;32.074;2022-09-09T00:01:05;3.55;;;2.65;;
52035;SDS011;38046;49.448;32.074;2022-09-09T00:03:52;2.97;;;2.60;;
52035;SDS011;38046;49.448;32.074;2022-09-09T00:06:27;3.88;;;2.90;;
52035;SDS011;38046;49.448;32.074;2022-09-09T00:09:12;3.30;;;2.80;;
52035;SDS011;38046;49.448;32.074;2022-09-09T00:11:52;2.63;;;2.42;;
52035;SDS011;38046;49.448;32.074;2022-09-09T00:17:12;3.83;;;3.03;;
52035;SDS011;38046;49.448;32.074;2022-09-09T00:19:51;3.38;;;2.35;;
52035;SDS011;38046;49.448;32.074;2022-09-09T00:22:25;3.67;;;2.70;;
52035;SDS011;38046;49.448;32.074;2022-09-09T00:24:56;3.17;;;2.72;;
52035;SDS011;38046;49.448;32.074;2022-09-09T00:27:32;3.58;;;2.63;;
52035;SDS011;38046;49.448;32.074;2022-09-09T00:30:13;3.00;;;2.58;;
52035;SDS011;38046;49.448;32.074;2022-09-09T00:32:48;2.80;;;2.35;;
52035;SDS011;38046;49.448;32.074;2022-09-09T00:35:22;2.95;;;2.65;;
52035;SDS011;38046;49.448;32.074;2022-09-09T00:37:58;3.47;;;2.63;;
52035;SDS011;38046;49.448;32.074;2022-09-09T00:40:32;3.22;;;2.72;;
52035;SDS011;38046;49.448;32.074;2022-09-09T00:48:22;2.88;;;2.50;;
52035;SDS011;38046;49.448;32.074;2022-09-09T00:51:00;3.75;;;2.78;;
52035;SDS011;38046;49.448;32.074;2022-09-09T00:53:39;4.10;;;2.92;;
52035;SDS011;38046;49.448;32.074;2022-09-09T00:56:30;2.55;;;2.30;;
52035;SDS011;38046;49.448;32.074;2022-09-09T01:01:35;3.35;;;2.63;;
52035;SDS011;38046;49.448;32.074;2022-09-09T01:04:04;3.42;;;2.60;;
52035;SDS011;38046;49.448;32.074;2022-09-09T01:06:37;3.72;;;2.58;;
52035;SDS011;38046;49.448;32.074;2022-09-09T01:09:17;2.72;;;2.45;;
52035;SDS011;38046;49.448;32.074;2022-09-09T01:17:23;3.10;;;2.78;;
52035;SDS011;38046;49.448;32.074;2022-09-09T01:20:10;2.90;;;2.30;;
52035;SDS011;38046;49.448;32.074;2022-09-09T01:28:10;3.97;;;2.85;;
52035;SDS011;38046;49.448;32.074;2022-09-09T01:30:41;3.05;;;2.50;;
52035;SDS011;38046;49.448;32.074;2022-09-09T01:33:09;3.00;;;2.50;;
52035;SDS011;38046;49.448;32.074;2022-09-09T01:35:42;2.45;;;2.03;;
52035;SDS011;38046;49.448;32.074;2022-09-09T01:38:15;2.70;;;2.22;;
52035;SDS011;38046;49.448;32.074;2022-09-09T01:40:43;2.85;;;2.47;;
52035;SDS011;38046;49.448;32.074;2022-09-09T01:43:08;2.72;;;2.20;;
52035;SDS011;38046;49.448;32.074;2022-09-09T01:45:35;3.50;;;2.40;;
52035;SDS011;38046;49.448;32.074;2022-09-09T01:48:00;2.58;;;2.35;;
52035;SDS011;38046;49.448;32.074;2022-09-09T01:50:27;3.15;;;2.55;;
52035;SDS011;38046;49.448;32.074;2022-09-09T01:52:54;2.97;;;2.30;;
52035;SDS011;38046;49.448;32.074;2022-09-09T02:03:36;3.17;;;2.47;;
52035;SDS011;38046;49.448;32.074;2022-09-09T02:06:10;3.20;;;2.45;;
52035;SDS011;38046;49.448;32.074;2022-09-09T02:08:48;2.40;;;2.20;;
52035;SDS011;38046;49.448;32.074;2022-09-09T02:11:17;3.17;;;2.40;;
52035;SDS011;38046;49.448;32.074;2022-09-09T02:13:45;3.65;;;2.35;;
52035;SDS011;38046;49.448;32.074;2022-09-09T02:16:22;3.25;;;2.42;;
52035;SDS011;38046;49.448;32.074;2022-09-09T02:21:42;2.97;;;2.20;;
52035;SDS011;38046;49.448;32.074;2022-09-09T02:24:10;2.50;;;2.30;;
52035;SDS011;38046;49.448;32.074;2022-09-09T02:26:40;3.42;;;2.70;;
52035;SDS011;38046;49.448;32.074;2022-09-09T02:29:13;3.20;;;2.42;;
52035;SDS011;38046;49.448;32.074;2022-09-09T02:31:42;3.15;;;2.55;;
52035;SDS011;38046;49.448;32.074;2022-09-09T02:34:10;2.78;;;2.30;;
52035;SDS011;38046;49.448;32.074;2022-09-09T02:36:38;3.38;;;2.60;;
52035;SDS011;38046;49.448;32.074;2022-09-09T02:39:07;2.53;;;2.20;;
52035;SDS011;38046;49.448;32.074;2022-09-09T02:41:36;3.35;;;2.50;;
52035;SDS011;38046;49.448;32.074;2022-09-09T02:44:36;2.83;;;2.50;;
52035;SDS011;38046;49.448;32.074;2022-09-09T02:49:52;3.28;;;2.30;;
52035;SDS011;38046;49.448;32.074;2022-09-09T02:52:40;3.28;;;2.40;;
52035;SDS011;38046;49.448;32.074;2022-09-09T02:57:56;2.47;;;2.13;;
52035;SDS011;38046;49.448;32.074;2022-09-09T03:00:24;2.70;;;2.50;;
52035;SDS011;38046;49.448;32.074;2022-09-09T03:02:52;2.42;;;2.20;;
52035;SDS011;38046;49.448;32.074;2022-09-09T03:05:19;3.15;;;2.55;;
52035;SDS011;38046;49.448;32.074;2022-09-09T03:07:45;2.58;;;2.30;;
52035;SDS011;38046;49.448;32.074;2022-09-09T03:10:11;2.38;;;2.17;;
52035;SDS011;38046;49.448;32.074;2022-09-09T03:12:37;2.35;;;2.10;;
52035;SDS011;38046;49.448;32.074;2022-09-09T03:15:03;3.65;;;2.33;;
52035;SDS011;38046;49.448;32.074;2022-09-09T03:17:30;2.63;;;2.20;;
52035;SDS011;38046;49.448;32.074;2022-09-09T03:19:55;2.63;;;2.30;;
52035;SDS011;38046;49.448;32.074;2022-09-09T03:22:22;2.40;;;2.20;;
52035;SDS011;38046;49.448;32.074;2022-09-09T03:24:48;2.80;;;2.50;;
52035;SDS011;38046;49.448;32.074;2022-09-09T03:27:14;2.13;;;1.92;;
52035;SDS011;38046;49.448;32.074;2022-09-09T03:29:39;2.35;;;1.90;;
52035;SDS011;38046;49.448;32.074;2022-09-09T03:32:05;2.75;;;2.05;;
52035;SDS011;38046;49.448;32.074;2022-09-09T03:34:31;1.90;;;1.80;;
52035;SDS011;38046;49.448;32.074;2022-09-09T03:36:57;2.30;;;2.10;;
52035;SDS011;38046;49.448;32.074;2022-09-09T03:39:22;2.55;;;2.22;;
52035;SDS011;38046;49.448;32.074;2022-09-09T03:41:48;2.20;;;2.00;;
52035;SDS011;38046;49.448;32.074;2022-09-09T03:44:14;2.15;;;1.63;;
52035;SDS011;38046;49.448;32.074;2022-09-09T03:46:40;2.40;;;2.20;;
52035;SDS011;38046;49.448;32.074;2022-09-09T03:49:05;1.83;;;1.73;;
52035;SDS011;38046;49.448;32.074;2022-09-09T03:51:31;2.78;;;1.90;;
52035;SDS011;38046;49.448;32.074;2022-09-09T03:53:59;2.45;;;2.17;;
52035;SDS011;38046;49.448;32.074;2022-09-09T03:56:24;1.77;;;1.65;;
52035;SDS011;38046;49.448;32.074;2022-09-09T03:58:50;2.22;;;2.03;;
52035;SDS011;38046;49.448;32.074;2022-09-09T04:01:16;2.95;;;2.10;;
52035;SDS011;38046;49.448;32.074;2022-09-09T04:03:43;2.40;;;2.20;;
52035;SDS011;38046;49.448;32.074;2022-09-09T04:06:10;2.47;;;2.28;;
52035;SDS011;38046;49.448;32.074;2022-09-09T04:08:37;2.38;;;2.17;;
52035;SDS011;38046;49.448;32.074;2022-09-09T04:11:03;1.70;;;1.60;;
52035;SDS011;38046;49.448;32.074;2022-09-09T04:13:31;2.08;;;1.83;;
52035;SDS011;38046;49.448;32.074;2022-09-09T04:15:58;2.55;;;1.95;;
52035;SDS011;38046;49.448;32.074;2022-09-09T04:18:25;2.22;;;1.92;;
52035;SDS011;38046;49.448;32.074;2022-09-09T04:20:53;2.90;;;1.85;;
52035;SDS011;38046;49.448;32.074;2022-09-09T04:23:21;1.90;;;1.60;;
52035;SDS011;38046;49.448;32.074;2022-09-09T04:25:50;2.03;;;1.80;;
52035;SDS011;38046;49.448;32.074;2022-09-09T04:28:18;2.33;;;2.13;;
52035;SDS011;38046;49.448;32.074;2022-09-09T04:30:45;2.10;;;1.90;;
52035;SDS011;38046;49.448;32.074;2022-09-09T04:33:12;2.10;;;1.90;;
52035;SDS011;38046;49.448;32.074;2022-09-09T04:35:39;2.53;;;2.28;;
52035;SDS011;38046;49.448;32.074;2022-09-09T04:38:09;3.00;;;1.90;;
52035;SDS011;38046;49.448;32.074;2022-09-09T04:40:34;2.17;;;1.98;;
52035;SDS011;38046;49.448;32.074;2022-09-09T04:43:01;2.00;;;1.77;;
52035;SDS011;38046;49.448;32.074;2022-09-09T04:45:29;2.22;;;2.03;;
52035;SDS011;38046;49.448;32.074;2022-09-09T04:47:56;2.25;;;1.95;;
52035;SDS011;38046;49.448;32.074;2022-09-09T04:50:21;2.10;;;1.90;;
52035;SDS011;38046;49.448;32.074;2022-09-09T04:52:47;2.13;;;1.90;;
52035;SDS011;38046;49.448;32.074;2022-09-09T04:55:13;3.25;;;1.98;;
52035;SDS011;38046;49.448;32.074;2022-09-09T04:57:39;2.42;;;1.70;;
52035;SDS011;38046;49.448;32.074;2022-09-09T05:00:05;1.65;;;1.55;;
52035;SDS011;38046;49.448;32.074;2022-09-09T05:02:32;2.38;;;1.90;;
52035;SDS011;38046;49.448;32.074;2022-09-09T05:04:58;2.17;;;1.98;;
52035;SDS011;38046;49.448;32.074;2022-09-09T05:07:25;1.70;;;1.40;;
52035;SDS011;38046;49.448;32.074;2022-09-09T05:09:52;2.22;;;1.80;;
52035;SDS011;38046;49.448;32.074;2022-09-09T05:12:18;1.83;;;1.73;;
52035;SDS011;38046;49.448;32.074;2022-09-09T05:14:44;1.55;;;1.42;;
52035;SDS011;38046;49.448;32.074;2022-09-09T05:17:10;1.70;;;1.60;;
52035;SDS011;38046;49.448;32.074;2022-09-09T05:19:36;1.90;;;1.70;;
52035;SDS011;38046;49.448;32.074;2022-09-09T05:22:01;1.55;;;1.45;;
52035;SDS011;38046;49.448;32.074;2022-09-09T05:24:27;2.30;;;1.90;;
52035;SDS011;38046;49.448;32.074;2022-09-09T05:26:53;1.75;;;1.65;;
52035;SDS011;38046;49.448;32.074;2022-09-09T05:29:19;2.40;;;1.92;;
52035;SDS011;38046;49.448;32.074;2022-09-09T05:31:45;1.60;;;1.50;;
52035;SDS011;38046;49.448;32.074;2022-09-09T05:34:12;1.58;;;1.48;;
52035;SDS011;38046;49.448;32.074;2022-09-09T05:36:37;1.20;;;1.20;;
52035;SDS011;38046;49.448;32.074;2022-09-09T05:39:03;1.60;;;1.38;;
52035;SDS011;38046;49.448;32.074;2022-09-09T05:41:29;1.55;;;1.42;;
52035;SDS011;38046;49.448;32.074;2022-09-09T05:43:56;1.70;;;1.52;;
52035;SDS011;38046;49.448;32.074;2022-09-09T05:46:23;1.90;;;1.73;;
52035;SDS011;38046;49.448;32.074;2022-09-09T05:48:50;1.55;;;1.45;;
52035;SDS011;38046;49.448;32.074;2022-09-09T05:51:18;1.33;;;1.23;;
52035;SDS011;38046;49.448;32.074;2022-09-09T05:53:49;1.70;;;1.60;;
52035;SDS011;38046;49.448;32.074;2022-09-09T05:56:19;1.67;;;1.42;;
52035;SDS011;38046;49.448;32.074;2022-09-09T05:58:49;1.83;;;1.73;;
52035;SDS011;38046;49.448;32.074;2022-09-09T06:01:18;1.40;;;1.30;;
52035;SDS011;38046;49.448;32.074;2022-09-09T06:03:46;1.58;;;1.42;;
52035;SDS011;38046;49.448;32.074;2022-09-09T06:06:14;1.10;;;1.10;;
52035;SDS011;38046;49.448;32.074;2022-09-09T06:08:42;1.40;;;1.30;;
52035;SDS011;38046;49.448;32.074;2022-09-09T06:13:42;2.17;;;1.95;;
52035;SDS011;38046;49.448;32.074;2022-09-09T06:16:09;1.30;;;1.20;;
52035;SDS011;38046;49.448;32.074;2022-09-09T06:18:36;1.45;;;1.35;;
52035;SDS011;38046;49.448;32.074;2022-09-09T06:21:06;1.73;;;1.63;;
52035;SDS011;38046;49.448;32.074;2022-09-09T06:23:43;1.52;;;1.42;;
52035;SDS011;38046;49.448;32.074;2022-09-09T06:28:40;1.60;;;1.50;;
52035;SDS011;38046;49.448;32.074;2022-09-09T06:31:08;1.50;;;1.38;;
52035;SDS011;38046;49.448;32.074;2022-09-09T06:33:36;1.52;;;1.42;;
52035;SDS011;38046;49.448;32.074;2022-09-09T06:36:05;1.80;;;1.70;;
52035;SDS011;38046;49.448;32.074;2022-09-09T06:38:41;1.35;;;1.25;;
52035;SDS011;38046;49.448;32.074;2022-09-09T06:41:08;1.70;;;1.60;;
52035;SDS011;38046;49.448;32.074;2022-09-09T06:43:35;1.58;;;1.48;;
52035;SDS011;38046;49.448;32.074;2022-09-09T06:46:02;1.25;;;1.15;;
52035;SDS011;38046;49.448;32.074;2022-09-09T06:48:33;1.70;;;1.60;;
52035;SDS011;38046;49.448;32.074;2022-09-09T06:53:36;1.50;;;1.40;;
52035;SDS011;38046;49.448;32.074;2022-09-09T06:58:46;1.13;;;1.02;;
52035;SDS011;38046;49.448;32.074;2022-09-09T07:01:17;1.30;;;1.30;;
52035;SDS011;38046;49.448;32.074;2022-09-09T07:03:48;1.13;;;1.05;;
52035;SDS011;38046;49.448;32.074;2022-09-09T07:08:42;2.25;;;1.40;;
52035;SDS011;38046;49.448;32.074;2022-09-09T07:11:09;1.17;;;1.10;;
52035;SDS011;38046;49.448;32.074;2022-09-09T07:13:36;0.90;;;0.90;;
52035;SDS011;38046;49.448;32.074;2022-09-09T07:16:05;1.13;;;1.13;;
52035;SDS011;38046;49.448;32.074;2022-09-09T07:18:35;1.60;;;1.50;;
52035;SDS011;38046;49.448;32.074;2022-09-09T07:21:02;1.05;;;1.05;;
52035;SDS011;38046;49.448;32.074;2022-09-09T07:23:28;2.40;;;1.30;;
52035;SDS011;38046;49.448;32.074;2022-09-09T07:25:55;1.60;;;1.48;;
52035;SDS011;38046;49.448;32.074;2022-09-09T07:28:21;1.10;;;1.08;;
52035;SDS011;38046;49.448;32.074;2022-09-09T07:30:57;1.30;;;1.20;;
52035;SDS011;38046;49.448;32.074;2022-09-09T07:33:26;1.60;;;1.10;;
52035;SDS011;38046;49.448;32.074;2022-09-09T07:35:52;0.77;;;0.77;;
52035;SDS011;38046;49.448;32.074;2022-09-09T07:38:21;3.25;;;1.33;;
52035;SDS011;38046;49.448;32.074;2022-09-09T07:40:47;1.40;;;1.27;;
52035;SDS011;38046;49.448;32.074;2022-09-09T07:43:13;1.55;;;1.20;;
52035;SDS011;38046;49.448;32.074;2022-09-09T07:45:39;1.25;;;1.10;;
52035;SDS011;38046;49.448;32.074;2022-09-09T07:48:06;1.20;;;1.20;;
52035;SDS011;38046;49.448;32.074;2022-09-09T07:50:32;1.17;;;1.08;;
52035;SDS011;38046;49.448;32.074;2022-09-09T07:52:57;1.20;;;1.10;;
52035;SDS011;38046;49.448;32.074;2022-09-09T07:55:24;2.38;;;1.67;;
52035;SDS011;38046;49.448;32.074;2022-09-09T07:57:50;1.15;;;1.13;;
52035;SDS011;38046;49.448;32.074;2022-09-09T08:00:16;1.15;;;1.13;;
52035;SDS011;38046;49.448;32.074;2022-09-09T08:02:43;1.13;;;1.13;;
52035;SDS011;38046;49.448;32.074;2022-09-09T08:05:09;1.45;;;1.20;;
52035;SDS011;38046;49.448;32.074;2022-09-09T08:07:35;1.27;;;1.17;;
52035;SDS011;38046;49.448;32.074;2022-09-09T08:10:01;1.10;;;1.10;;
52035;SDS011;38046;49.448;32.074;2022-09-09T08:12:27;1.30;;;1.27;;
52035;SDS011;38046;49.448;32.074;2022-09-09T08:14:53;1.35;;;1.27;;
52035;SDS011;38046;49.448;32.074;2022-09-09T08:17:19;1.40;;;1.10;;
52035;SDS011;38046;49.448;32.074;2022-09-09T08:19:45;1.25;;;1.25;;
52035;SDS011;38046;49.448;32.074;2022-09-09T08:22:10;1.20;;;1.13;;
52035;SDS011;38046;49.448;32.074;2022-09-09T08:24:36;1.30;;;1.20;;
52035;SDS011;38046;49.448;32.074;2022-09-09T08:27:01;1.20;;;1.20;;
52035;SDS011;38046;49.448;32.074;2022-09-09T08:29:27;1.00;;;1.00;;
52035;SDS011;38046;49.448;32.074;2022-09-09T08:31:54;1.40;;;1.33;;
52035;SDS011;38046;49.448;32.074;2022-09-09T08:34:22;1.00;;;1.00;;
52035;SDS011;38046;49.448;32.074;2022-09-09T08:36:51;0.80;;;0.80;;
52035;SDS011;38046;49.448;32.074;2022-09-09T08:39:17;1.20;;;1.10;;
52035;SDS011;38046;49.448;32.074;2022-09-09T08:44:11;1.02;;;1.00;;
52035;SDS011;38046;49.448;32.074;2022-09-09T08:58:21;1.20;;;1.10;;
52035;SDS011;38046;49.448;32.074;2022-09-09T09:06:49;1.13;;;1.08;;
52035;SDS011;38046;49.448;32.074;2022-09-09T09:12:23;1.30;;;1.10;;
52035;SDS011;38046;49.448;32.074;2022-09-09T09:14:51;1.52;;;1.42;;
52035;SDS011;38046;49.448;32.074;2022-09-09T09:17:18;1.10;;;1.00;;
52035;SDS011;38046;49.448;32.074;2022-09-09T09:19:45;1.20;;;1.10;;
52035;SDS011;38046;49.448;32.074;2022-09-09T09:22:19;1.02;;;1.02;;
52035;SDS011;38046;49.448;32.074;2022-09-09T09:24:54;1.40;;;1.30;;
52035;SDS011;38046;49.448;32.074;2022-09-09T09:29:53;0.73;;;0.70;;
52035;SDS011;38046;49.448;32.074;2022-09-09T09:32:22;0.70;;;0.70;;
52035;SDS011;38046;49.448;32.074;2022-09-09T09:34:54;1.05;;;0.95;;
52035;SDS011;38046;49.448;32.074;2022-09-09T09:37:25;1.15;;;1.05;;
52035;SDS011;38046;49.448;32.074;2022-09-09T09:39:56;1.15;;;1.15;;
52035;SDS011;38046;49.448;32.074;2022-09-09T09:42:32;1.30;;;1.20;;
52035;SDS011;38046;49.448;32.074;2022-09-09T09:45:07;1.30;;;1.20;;
52035;SDS011;38046;49.448;32.074;2022-09-09T09:47:35;1.10;;;1.10;;
52035;SDS011;38046;49.448;32.074;2022-09-09T09:50:00;1.50;;;1.40;;
52035;SDS011;38046;49.448;32.074;2022-09-09T09:52:28;0.88;;;0.88;;
52035;SDS011;38046;49.448;32.074;2022-09-09T09:54:55;1.35;;;1.25;;
52035;SDS011;38046;49.448;32.074;2022-09-09T09:57:24;1.27;;;1.17;;
52035;SDS011;38046;49.448;32.074;2022-09-09T10:00:04;1.63;;;1.33;;
52035;SDS011;38046;49.448;32.074;2022-09-09T10:02:40;0.90;;;0.90;;
52035;SDS011;38046;49.448;32.074;2022-09-09T10:05:21;1.17;;;1.08;;
52035;SDS011;38046;49.448;32.074;2022-09-09T10:08:11;1.20;;;1.10;;
52035;SDS011;38046;49.448;32.074;2022-09-09T10:13:18;1.10;;;1.10;;
52035;SDS011;38046;49.448;32.074;2022-09-09T10:21:54;1.10;;;1.00;;
52035;SDS011;38046;49.448;32.074;2022-09-09T10:30:56;1.50;;;1.40;;
52035;SDS011;38046;49.448;32.074;2022-09-09T10:33:31;0.95;;;0.95;;
52035;SDS011;38046;49.448;32.074;2022-09-09T10:38:38;1.25;;;1.15;;
52035;SDS011;38046;49.448;32.074;2022-09-09T10:43:57;1.13;;;1.13;;
52035;SDS011;38046;49.448;32.074;2022-09-09T10:57:53;1.48;;;1.35;;
52035;SDS011;38046;49.448;32.074;2022-09-09T11:00:21;1.23;;;1.20;;
52035;SDS011;38046;49.448;32.074;2022-09-09T11:02:56;1.27;;;1.17;;
52035;SDS011;38046;49.448;32.074;2022-09-09T11:08:20;1.45;;;1.35;;
52035;SDS011;38046;49.448;32.074;2022-09-09T11:22:02;1.48;;;1.38;;
52035;SDS011;38046;49.448;32.074;2022-09-09T11:24:56;1.02;;;1.00;;
52035;SDS011;38046;49.448;32.074;2022-09-09T11:30:21;1.30;;;1.23;;
52035;SDS011;38046;49.448;32.074;2022-09-09T11:36:19;1.30;;;1.20;;
52035;SDS011;38046;49.448;32.074;2022-09-09T11:41:40;1.30;;;1.20;;
52035;SDS011;38046;49.448;32.074;2022-09-09T11:44:12;1.35;;;1.25;;
52035;SDS011;38046;49.448;32.074;2022-09-09T11:46:43;1.40;;;1.40;;
52035;SDS011;38046;49.448;32.074;2022-09-09T11:49:28;1.45;;;1.35;;
52035;SDS011;38046;49.448;32.074;2022-09-09T11:54:58;2.53;;;1.23;;
52035;SDS011;38046;49.448;32.074;2022-09-09T11:57:36;1.70;;;1.30;;
52035;SDS011;38046;49.448;32.074;2022-09-09T12:00:04;2.13;;;1.60;;
52035;SDS011;38046;49.448;32.074;2022-09-09T12:02:30;1.40;;;1.30;;
52035;SDS011;38046;49.448;32.074;2022-09-09T12:07:30;1.65;;;1.55;;
52035;SDS011;38046;49.448;32.074;2022-09-09T12:10:04;0.98;;;0.98;;
52035;SDS011;38046;49.448;32.074;2022-09-09T12:15:46;1.42;;;1.33;;
52035;SDS011;38046;49.448;32.074;2022-09-09T12:17:52;1.15;;;1.02;;
52035;SDS011;38046;49.448;32.074;2022-09-09T12:28:33;1.80;;;1.70;;
52035;SDS011;38046;49.448;32.074;2022-09-09T12:30:29;1.48;;;1.38;;
52035;SDS011;38046;49.448;32.074;2022-09-09T12:33:06;1.65;;;1.55;;
52035;SDS011;38046;49.448;32.074;2022-09-09T12:35:35;1.40;;;1.30;;
52035;SDS011;38046;49.448;32.074;2022-09-09T12:38:03;2.72;;;2.08;;
52035;SDS011;38046;49.448;32.074;2022-09-09T12:40:35;1.70;;;1.60;;
52035;SDS011;38046;49.448;32.074;2022-09-09T12:43:01;1.83;;;1.73;;
52035;SDS011;38046;49.448;32.074;2022-09-09T12:45:41;1.17;;;1.07;;
52035;SDS011;38046;49.448;32.074;2022-09-09T12:48:08;1.30;;;1.20;;
52035;SDS011;38046;49.448;32.074;2022-09-09T12:50:49;0.82;;;0.82;;
52035;SDS011;38046;49.448;32.074;2022-09-09T12:56:01;1.00;;;0.93;;
52035;SDS011;38046;49.448;32.074;2022-09-09T13:01:18;0.95;;;0.95;;
52035;SDS011;38046;49.448;32.074;2022-09-09T13:03:56;1.10;;;0.98;;
52035;SDS011;38046;49.448;32.074;2022-09-09T13:08:48;0.93;;;0.90;;
52035;SDS011;38046;49.448;32.074;2022-09-09T13:11:20;1.67;;;1.58;;
52035;SDS011;38046;49.448;32.074;2022-09-09T13:13:56;2.35;;;1.83;;
52035;SDS011;38046;49.448;32.074;2022-09-09T13:16:27;1.73;;;1.63;;
52035;SDS011;38046;49.448;32.074;2022-09-09T13:19:00;1.00;;;1.00;;
52035;SDS011;38046;49.448;32.074;2022-09-09T13:21:35;1.23;;;1.13;;
52035;SDS011;38046;49.448;32.074;2022-09-09T13:24:05;1.52;;;1.38;;
52035;SDS011;38046;49.448;32.074;2022-09-09T13:26:32;1.30;;;1.20;;
52035;SDS011;38046;49.448;32.074;2022-09-09T13:32:04;1.20;;;1.10;;
52035;SDS011;38046;49.448;32.074;2022-09-09T13:34:37;0.98;;;0.98;;
52035;SDS011;38046;49.448;32.074;2022-09-09T13:45:15;1.60;;;1.45;;
52035;SDS011;38046;49.448;32.074;2022-09-09T13:47:45;1.50;;;1.40;;
52035;SDS011;38046;49.448;32.074;2022-09-09T13:50:22;1.27;;;1.27;;
52035;SDS011;38046;49.448;32.074;2022-09-09T13:52:53;1.52;;;1.40;;
52035;SDS011;38046;49.448;32.074;2022-09-09T13:55:23;1.55;;;1.45;;
52035;SDS011;38046;49.448;32.074;2022-09-09T13:57:51;1.80;;;1.70;;
52035;SDS011;38046;49.448;32.074;2022-09-09T14:00:19;1.48;;;1.38;;
52035;SDS011;38046;49.448;32.074;2022-09-09T14:02:46;1.70;;;1.60;;
52035;SDS011;38046;49.448;32.074;2022-09-09T14:05:13;2.70;;;1.88;;
52035;SDS011;38046;49.448;32.074;2022-09-09T14:07:39;1.70;;;1.50;;
52035;SDS011;38046;49.448;32.074;2022-09-09T14:10:05;2.10;;;1.75;;
52035;SDS011;38046;49.448;32.074;2022-09-09T14:12:32;1.75;;;1.65;;
52035;SDS011;38046;49.448;32.074;2022-09-09T14:14:58;1.90;;;1.70;;
52035;SDS011;38046;49.448;32.074;2022-09-09T14:17:24;1.60;;;1.50;;
52035;SDS011;38046;49.448;32.074;2022-09-09T14:19:54;1.70;;;1.60;;
52035;SDS011;38046;49.448;32.074;2022-09-09T14:22:21;1.48;;;1.35;;
52035;SDS011;38046;49.448;32.074;2022-09-09T14:24:47;1.50;;;1.40;;
52035;SDS011;38046;49.448;32.074;2022-09-09T14:27:13;1.95;;;1.65;;
52035;SDS011;38046;49.448;32.074;2022-09-09T14:29:40;1.38;;;1.27;;
52035;SDS011;38046;49.448;32.074;2022-09-09T14:32:05;1.48;;;1.35;;
52035;SDS011;38046;49.448;32.074;2022-09-09T14:34:31;1.40;;;1.30;;
52035;SDS011;38046;49.448;32.074;2022-09-09T14:36:57;2.85;;;1.63;;
52035;SDS011;38046;49.448;32.074;2022-09-09T14:39:23;1.33;;;1.23;;
52035;SDS011;38046;49.448;32.074;2022-09-09T14:41:49;1.48;;;1.38;;
52035;SDS011;38046;49.448;32.074;2022-09-09T14:44:14;1.52;;;1.40;;
52035;SDS011;38046;49.448;32.074;2022-09-09T14:46:41;1.40;;;1.30;;
52035;SDS011;38046;49.448;32.074;2022-09-09T14:49:07;1.60;;;1.50;;
52035;SDS011;38046;49.448;32.074;2022-09-09T14:51:35;2.22;;;1.88;;
52035;SDS011;38046;49.448;32.074;2022-09-09T14:54:01;2.53;;;1.70;;
52035;SDS011;38046;49.448;32.074;2022-09-09T14:56:28;1.95;;;1.85;;
52035;SDS011;38046;49.448;32.074;2022-09-09T14:58:56;1.77;;;1.67;;
52035;SDS011;38046;49.448;32.074;2022-09-09T15:01:23;2.05;;;1.85;;
52035;SDS011;38046;49.448;32.074;2022-09-09T15:03:53;1.90;;;1.50;;
52035;SDS011;38046;49.448;32.074;2022-09-09T15:06:21;1.58;;;1.48;;
52035;SDS011;38046;49.448;32.074;2022-09-09T15:08:49;1.75;;;1.60;;
52035;SDS011;38046;49.448;32.074;2022-09-09T15:11:17;1.63;;;1.52;;
52035;SDS011;38046;49.448;32.074;2022-09-09T15:13:43;1.70;;;1.40;;
52035;SDS011;38046;49.448;32.074;2022-09-09T15:16:17;1.45;;;1.35;;
52035;SDS011;38046;49.448;32.074;2022-09-09T15:18:44;1.77;;;1.30;;
52035;SDS011;38046;49.448;32.074;2022-09-09T15:21:11;1.73;;;1.63;;
52035;SDS011;38046;49.448;32.074;2022-09-09T15:23:39;2.08;;;1.80;;
52035;SDS011;38046;49.448;32.074;2022-09-09T15:26:05;1.88;;;1.77;;
52035;SDS011;38046;49.448;32.074;2022-09-09T15:28:34;1.80;;;1.70;;
52035;SDS011;38046;49.448;32.074;2022-09-09T15:31:04;1.50;;;1.40;;
52035;SDS011;38046;49.448;32.074;2022-09-09T15:33:32;1.52;;;1.42;;
52035;SDS011;38046;49.448;32.074;2022-09-09T15:35:58;1.65;;;1.40;;
52035;SDS011;38046;49.448;32.074;2022-09-09T15:38:23;2.25;;;1.50;;
52035;SDS011;38046;49.448;32.074;2022-09-09T15:40:53;2.20;;;1.90;;
52035;SDS011;38046;49.448;32.074;2022-09-09T15:43:19;2.35;;;2.15;;
52035;SDS011;38046;49.448;32.074;2022-09-09T15:45:46;2.42;;;2.10;;
52035;SDS011;38046;49.448;32.074;2022-09-09T15:48:13;2.00;;;1.85;;
52035;SDS011;38046;49.448;32.074;2022-09-09T15:50:39;2.47;;;2.03;;
52035;SDS011;38046;49.448;32.074;2022-09-09T15:53:05;3.45;;;1.98;;
52035;SDS011;38046;49.448;32.074;2022-09-09T15:55:31;3.25;;;2.33;;
52035;SDS011;38046;49.448;32.074;2022-09-09T15:57:56;4.30;;;2.30;;
52035;SDS011;38046;49.448;32.074;2022-09-09T16:00:22;3.30;;;2.47;;
52035;SDS011;38046;49.448;32.074;2022-09-09T16:02:49;4.18;;;2.20;;
52035;SDS011;38046;49.448;32.074;2022-09-09T16:05:15;3.38;;;2.25;;
52035;SDS011;38046;49.448;32.074;2022-09-09T16:07:41;2.53;;;2.10;;
52035;SDS011;38046;49.448;32.074;2022-09-09T16:10:07;2.40;;;2.20;;
52035;SDS011;38046;49.448;32.074;2022-09-09T16:12:34;1.67;;;1.58;;
52035;SDS011;38046;49.448;32.074;2022-09-09T16:15:00;3.08;;;1.98;;
52035;SDS011;38046;49.448;32.074;2022-09-09T16:17:26;3.08;;;2.00;;
52035;SDS011;38046;49.448;32.074;2022-09-09T16:19:52;1.52;;;1.42;;
52035;SDS011;38046;49.448;32.074;2022-09-09T16:22:19;2.10;;;1.63;;
52035;SDS011;38046;49.448;32.074;2022-09-09T16:24:45;1.58;;;1.42;;
52035;SDS011;38046;49.448;32.074;2022-09-09T16:27:10;2.22;;;1.70;;
52035;SDS011;38046;49.448;32.074;2022-09-09T16:29:36;2.38;;;1.77;;
52035;SDS011;38046;49.448;32.074;2022-09-09T16:32:02;2.05;;;1.90;;
52035;SDS011;38046;49.448;32.074;2022-09-09T16:34:27;3.72;;;2.25;;
52035;SDS011;38046;49.448;32.074;2022-09-09T16:36:53;3.35;;;2.30;;
52035;SDS011;38046;49.448;32.074;2022-09-09T16:39:19;3.28;;;2.15;;
52035;SDS011;38046;49.448;32.074;2022-09-09T16:41:46;2.85;;;2.03;;
52035;SDS011;38046;49.448;32.074;2022-09-09T16:44:13;2.10;;;1.88;;
52035;SDS011;38046;49.448;32.074;2022-09-09T16:46:42;2.78;;;2.22;;
52035;SDS011;38046;49.448;32.074;2022-09-09T16:49:12;2.88;;;2.05;;
52035;SDS011;38046;49.448;32.074;2022-09-09T16:51:44;2.05;;;1.70;;
52035;SDS011;38046;49.448;32.074;2022-09-09T16:54:12;1.70;;;1.60;;
52035;SDS011;38046;49.448;32.074;2022-09-09T16:56:39;1.70;;;1.60;;
52035;SDS011;38046;49.448;32.074;2022-09-09T16:59:27;1.60;;;1.42;;
52035;SDS011;38046;49.448;32.074;2022-09-09T17:01:52;1.77;;;1.33;;
52035;SDS011;38046;49.448;32.074;2022-09-09T17:04:20;1.52;;;1.42;;
52035;SDS011;38046;49.448;32.074;2022-09-09T17:06:49;2.55;;;2.05;;
52035;SDS011;38046;49.448;32.074;2022-09-09T17:09:16;1.85;;;1.42;;
52035;SDS011;38046;49.448;32.074;2022-09-09T17:11:43;1.30;;;1.20;;
52035;SDS011;38046;49.448;32.074;2022-09-09T17:14:11;1.00;;;1.00;;
52035;SDS011;38046;49.448;32.074;2022-09-09T17:16:39;1.30;;;1.20;;
52035;SDS011;38046;49.448;32.074;2022-09-09T17:19:06;1.50;;;1.40;;
52035;SDS011;38046;49.448;32.074;2022-09-09T17:21:34;1.67;;;1.33;;
52035;SDS011;38046;49.448;32.074;2022-09-09T17:24:00;1.80;;;1.55;;
52035;SDS011;38046;49.448;32.074;2022-09-09T17:26:28;2.58;;;1.63;;
52035;SDS011;38046;49.448;32.074;2022-09-09T17:28:55;2.67;;;2.03;;
52035;SDS011;38046;49.448;32.074;2022-09-09T17:31:23;1.95;;;1.60;;